createdAt,value
2023-02-09T00:01:00.978Z,-5.63
2023-02-09T00:03:27.596Z,-5.63
2023-02-09T00:05:54.181Z,-5.68
2023-02-09T00:08:20.585Z,-5.61
2023-02-09T00:10:47.553Z,-5.89
2023-02-09T00:13:23.669Z,-6.41
2023-02-09T00:15:51.233Z,-6.84
2023-02-09T00:18:18.004Z,-7.08
2023-02-09T00:20:44.971Z,-7.16
2023-02-09T00:23:11.607Z,-6.92
2023-02-09T00:25:39.024Z,-6.54
2023-02-09T00:28:06.007Z,-6.46
2023-02-09T00:30:33.118Z,-6.57
2023-02-09T00:32:59.472Z,-6.38
2023-02-09T00:35:25.885Z,-6.08
2023-02-09T00:37:53.652Z,-6.29
2023-02-09T00:40:20.224Z,-6.38
2023-02-09T00:42:46.612Z,-6.43
2023-02-09T00:45:16.343Z,-6.29
2023-02-09T00:47:43.424Z,-6.34
2023-02-09T00:50:09.816Z,-6.45
2023-02-09T00:52:36.321Z,-6.42
2023-02-09T00:55:03.331Z,-6.42
2023-02-09T00:57:29.748Z,-6.36
2023-02-09T00:59:56.433Z,-6.31
2023-02-09T01:02:22.814Z,-6.39
2023-02-09T01:04:49.941Z,-6.39
2023-02-09T01:07:16.470Z,-6.37
2023-02-09T01:09:42.892Z,-6.53
2023-02-09T01:12:09.312Z,-6.54
2023-02-09T01:14:38.408Z,-6.65
2023-02-09T01:17:05.022Z,-6.75
2023-02-09T01:19:31.992Z,-6.74
2023-02-09T01:21:59.243Z,-7.28
2023-02-09T01:24:25.757Z,-7.24
2023-02-09T01:26:52.337Z,-7.28
2023-02-09T01:29:20.175Z,-6.96
2023-02-09T01:31:48.277Z,-7.23
2023-02-09T01:34:18.242Z,-7.08
2023-02-09T01:36:47.672Z,-6.93
2023-02-09T01:39:14.889Z,-7.08
2023-02-09T01:41:41.734Z,-7.15
2023-02-09T01:44:42.872Z,-7.22
2023-02-09T01:47:13.281Z,-7.12
2023-02-09T01:49:39.809Z,-7.22
2023-02-09T01:52:10.264Z,-7.18
2023-02-09T01:54:44.291Z,-7.10
2023-02-09T01:57:13.189Z,-7.05
2023-02-09T01:59:42.850Z,-7.16
2023-02-09T02:02:10.534Z,-7.22
2023-02-09T02:04:38.683Z,-7.49
2023-02-09T02:07:09.893Z,-7.46
2023-02-09T02:09:36.805Z,-7.35
2023-02-09T02:12:05.151Z,-6.99
2023-02-09T02:14:33.895Z,-6.44
2023-02-09T02:17:15.286Z,-6.58
2023-02-09T02:20:16.034Z,-7.00
2023-02-09T02:22:55.495Z,-6.93
2023-02-09T02:25:54.192Z,-7.12
2023-02-09T02:28:43.279Z,-7.01
2023-02-09T02:31:59.187Z,-7.14
2023-02-09T02:34:34.598Z,-7.10
2023-02-09T02:37:13.487Z,-7.24
2023-02-09T02:39:50.358Z,-7.32
2023-02-09T02:42:42.267Z,-7.33
2023-02-09T02:45:13.058Z,-7.25
2023-02-09T02:47:47.093Z,-7.20
2023-02-09T02:50:15.824Z,-7.24
2023-02-09T02:52:46.626Z,-7.12
2023-02-09T02:55:16.413Z,-7.14
2023-02-09T02:57:46.974Z,-7.19
2023-02-09T03:00:18.664Z,-7.18
2023-02-09T03:02:49.780Z,-7.35
2023-02-09T03:05:17.305Z,-7.44
2023-02-09T03:07:44.165Z,-7.32
2023-02-09T03:10:26.261Z,-7.29
2023-02-09T03:13:07.168Z,-7.37
2023-02-09T03:15:44.176Z,-7.42
2023-02-09T03:18:16.565Z,-7.42
2023-02-09T03:20:50.643Z,-7.44
2023-02-09T03:23:26.973Z,-7.26
2023-02-09T03:25:56.517Z,-7.49
2023-02-09T03:28:28.666Z,-7.49
2023-02-09T03:30:57.207Z,-7.43
2023-02-09T03:33:27.377Z,-7.24
2023-02-09T03:35:58.316Z,-7.27
2023-02-09T03:38:25.544Z,-7.30
2023-02-09T03:40:52.005Z,-7.20
2023-02-09T03:43:18.384Z,-7.23
2023-02-09T03:45:44.796Z,-7.43
2023-02-09T03:48:11.325Z,-7.35
2023-02-09T03:50:38.491Z,-7.58
2023-02-09T03:53:05.771Z,-7.71
2023-02-09T03:55:32.210Z,-7.35
2023-02-09T03:57:58.572Z,-7.31
2023-02-09T04:00:25.113Z,-7.43
2023-02-09T04:02:51.660Z,-7.69
2023-02-09T04:05:18.292Z,-7.78
2023-02-09T04:07:45.554Z,-7.80
2023-02-09T04:10:11.934Z,-7.67
2023-02-09T04:12:38.342Z,-7.67
2023-02-09T04:15:05.324Z,-7.73
2023-02-09T04:17:31.736Z,-7.60
2023-02-09T04:19:58.169Z,-7.70
2023-02-09T04:22:24.574Z,-7.69
2023-02-09T04:24:51.601Z,-7.70
2023-02-09T04:27:18.007Z,-7.36
2023-02-09T04:29:44.394Z,-7.06
2023-02-09T04:32:10.876Z,-7.36
2023-02-09T04:34:37.306Z,-7.52
2023-02-09T04:37:03.705Z,-7.31
2023-02-09T04:39:30.216Z,-7.35
2023-02-09T04:41:57.239Z,-7.38
2023-02-09T04:44:23.662Z,-7.50
2023-02-09T04:46:50.045Z,-7.51
2023-02-09T04:49:16.438Z,-7.62
2023-02-09T04:51:42.841Z,-7.58
2023-02-09T04:54:09.289Z,-7.57
2023-02-09T04:56:37.240Z,-7.51
2023-02-09T04:59:31.592Z,-7.16
2023-02-09T05:01:58.057Z,-6.98
2023-02-09T05:04:24.455Z,-6.82
2023-02-09T05:06:50.876Z,-7.29
2023-02-09T05:09:17.314Z,-7.35
2023-02-09T05:11:43.675Z,-7.60
2023-02-09T05:14:10.683Z,-7.48
2023-02-09T05:16:39.119Z,-7.51
2023-02-09T05:19:05.851Z,-7.41
2023-02-09T05:21:32.243Z,-7.48
2023-02-09T05:23:58.679Z,-7.39
2023-02-09T05:26:25.142Z,-7.40
2023-02-09T05:28:51.571Z,-7.33
2023-02-09T05:31:18.687Z,-7.17
2023-02-09T05:33:45.152Z,-7.31
2023-02-09T05:36:12.102Z,-7.42
2023-02-09T05:38:39.379Z,-7.42
2023-02-09T05:41:06.548Z,-7.34
2023-02-09T05:43:33.015Z,-7.37
2023-02-09T05:45:59.520Z,-7.50
2023-02-09T05:48:26.669Z,-7.10
2023-02-09T05:50:53.127Z,-7.28
2023-02-09T05:53:19.649Z,-7.52
2023-02-09T05:55:46.861Z,-7.54
2023-02-09T05:58:13.723Z,-7.68
2023-02-09T06:00:40.133Z,-7.77
2023-02-09T06:03:06.607Z,-7.66
2023-02-09T06:05:33.723Z,-7.19
2023-02-09T06:08:00.134Z,-7.31
2023-02-09T06:10:26.510Z,-7.14
2023-02-09T06:12:52.948Z,-7.30
2023-02-09T06:15:20.329Z,-7.22
2023-02-09T06:17:46.804Z,-7.23
2023-02-09T06:20:13.203Z,-7.29
2023-02-09T06:22:40.258Z,-6.91
2023-02-09T06:25:07.179Z,-6.81
2023-02-09T06:27:33.616Z,-6.74
2023-02-09T06:30:00.084Z,-6.86
2023-02-09T06:32:26.546Z,-7.16
2023-02-09T06:34:53.030Z,-7.19
2023-02-09T06:37:19.507Z,-7.10
2023-02-09T06:39:46.582Z,-7.06
2023-02-09T06:42:13.139Z,-7.04
2023-02-09T06:44:39.558Z,-6.97
2023-02-09T06:47:05.966Z,-6.61
2023-02-09T06:49:32.401Z,-6.37
2023-02-09T06:52:10.481Z,-6.35
2023-02-09T06:54:37.034Z,-5.93
2023-02-09T06:57:04.200Z,-5.99
2023-02-09T06:59:30.592Z,-5.87
2023-02-09T07:01:57.047Z,-5.90
2023-02-09T07:04:23.535Z,-5.84
2023-02-09T07:06:50.048Z,-5.88
2023-02-09T07:09:19.952Z,-5.49
2023-02-09T07:11:46.351Z,-5.33
2023-02-09T07:14:13.482Z,-5.25
2023-02-09T07:16:40.835Z,-5.44
2023-02-09T07:19:07.514Z,-5.40
2023-02-09T07:21:33.969Z,-5.43
2023-02-09T07:24:00.570Z,-5.23
2023-02-09T07:26:27.084Z,-5.04
2023-02-09T07:28:53.520Z,-5.17
2023-02-09T07:31:20.789Z,-4.91
2023-02-09T07:33:52.315Z,-4.50
2023-02-09T07:36:19.290Z,-4.40
2023-02-09T07:38:45.784Z,-4.56
2023-02-09T07:41:15.783Z,-4.39
2023-02-09T07:43:42.456Z,-4.53
2023-02-09T07:46:09.139Z,-4.25
2023-02-09T07:48:36.688Z,-4.04
2023-02-09T07:51:03.867Z,-3.90
2023-02-09T07:53:32.708Z,-3.84
2023-02-09T07:55:59.195Z,-3.78
2023-02-09T07:58:25.650Z,-3.63
2023-02-09T08:00:52.108Z,-3.38
2023-02-09T08:03:21.986Z,-3.58
2023-02-09T08:05:55.233Z,-3.47
2023-02-09T08:08:21.810Z,-3.53
2023-02-09T08:10:51.850Z,-3.41
2023-02-09T08:13:18.373Z,-3.37
2023-02-09T08:15:49.248Z,-3.21
2023-02-09T08:18:19.506Z,-3.08
2023-02-09T08:20:47.090Z,-3.19
2023-02-09T08:23:18.964Z,-3.02
2023-02-09T08:25:47.290Z,-2.87
2023-02-09T08:28:14.110Z,-2.74
2023-02-09T08:30:40.706Z,-2.48
2023-02-09T08:33:08.853Z,-2.22
2023-02-09T08:35:35.318Z,-1.98
2023-02-09T08:38:03.575Z,-1.77
2023-02-09T08:40:31.274Z,-1.76
2023-02-09T08:42:59.184Z,-1.94
2023-02-09T08:45:25.786Z,-1.79
2023-02-09T08:47:52.287Z,-1.55
2023-02-09T08:50:18.730Z,-1.13
2023-02-09T08:52:45.276Z,-0.93
2023-02-09T08:55:11.793Z,-0.69
2023-02-09T08:57:44.351Z,-0.84
2023-02-09T09:00:12.494Z,-0.81
2023-02-09T09:02:38.938Z,-0.48
2023-02-09T09:05:06.289Z,-0.69
2023-02-09T09:07:32.875Z,-0.99
2023-02-09T09:09:59.297Z,-0.64
2023-02-09T09:12:25.808Z,-0.77
2023-02-09T09:14:52.892Z,-0.53
2023-02-09T09:17:19.361Z,-0.68
2023-02-09T09:19:46.030Z,-0.62
2023-02-09T09:22:12.462Z,-0.65
2023-02-09T09:24:40.029Z,-0.25
2023-02-09T09:27:07.471Z,-0.13
2023-02-09T09:29:34.212Z,-0.07
2023-02-09T09:32:01.746Z,-0.01
2023-02-09T09:34:28.650Z,-0.06
2023-02-09T09:36:55.100Z,0.27
2023-02-09T09:39:21.570Z,0.00
2023-02-09T09:41:52.146Z,-0.12
2023-02-09T09:44:27.181Z,0.25
2023-02-09T09:46:54.443Z,0.62
2023-02-09T09:49:26.086Z,0.44
2023-02-09T09:51:56.137Z,0.75
2023-02-09T09:54:26.214Z,0.81
2023-02-09T09:56:53.691Z,1.20
2023-02-09T09:59:23.745Z,1.40
2023-02-09T10:01:52.510Z,1.93
2023-02-09T10:04:20.202Z,3.37
2023-02-09T10:06:53.881Z,3.52
2023-02-09T10:09:31.658Z,4.64
2023-02-09T10:12:07.306Z,3.97
2023-02-09T10:14:33.840Z,3.79
2023-02-09T10:17:02.880Z,3.67
2023-02-09T10:19:29.644Z,3.77
2023-02-09T10:21:57.139Z,3.87
2023-02-09T10:24:25.716Z,4.32
2023-02-09T10:27:10.017Z,4.49
2023-02-09T10:29:36.419Z,4.17
2023-02-09T10:32:07.564Z,3.99
2023-02-09T10:34:42.470Z,3.90
2023-02-09T10:37:35.122Z,3.55
2023-02-09T10:40:14.174Z,3.60
2023-02-09T10:42:49.363Z,4.54
2023-02-09T10:45:24.934Z,4.15
2023-02-09T10:47:58.423Z,4.73
2023-02-09T10:50:28.626Z,5.04
2023-02-09T10:52:58.920Z,5.47
2023-02-09T10:55:29.044Z,5.87
2023-02-09T10:58:17.338Z,5.88
2023-02-09T11:00:50.238Z,5.67
2023-02-09T11:03:20.164Z,4.77
2023-02-09T11:05:47.732Z,3.98
2023-02-09T11:08:21.018Z,3.60
2023-02-09T11:11:01.153Z,3.32
2023-02-09T11:13:27.793Z,3.15
2023-02-09T11:16:19.216Z,3.28
2023-02-09T11:18:51.757Z,3.18
2023-02-09T11:21:26.427Z,2.95
2023-02-09T11:24:00.952Z,2.93
2023-02-09T11:26:37.935Z,2.93
2023-02-09T11:29:13.022Z,2.85
2023-02-09T11:31:49.670Z,3.07
2023-02-09T11:34:38.349Z,3.30
2023-02-09T11:37:18.983Z,3.14
2023-02-09T11:39:55.570Z,3.51
2023-02-09T11:42:41.016Z,3.64
2023-02-09T11:45:12.906Z,3.91
2023-02-09T11:47:51.364Z,3.85
2023-02-09T11:50:26.271Z,4.04
2023-02-09T11:52:55.886Z,3.96
2023-02-09T11:55:28.532Z,3.98
2023-02-09T11:58:05.870Z,3.92
2023-02-09T12:00:53.171Z,4.10
2023-02-09T12:03:21.156Z,3.91
2023-02-09T12:05:48.196Z,3.83
2023-02-09T12:08:30.026Z,3.85
2023-02-09T12:11:14.871Z,3.92
2023-02-09T12:14:03.968Z,3.90
2023-02-09T12:16:34.618Z,3.79
2023-02-09T12:19:03.160Z,3.75
2023-02-09T12:21:31.860Z,3.99
2023-02-09T12:24:01.647Z,3.83
2023-02-09T12:26:41.865Z,4.00
2023-02-09T12:29:33.970Z,3.90
2023-02-09T12:32:40.781Z,4.04
2023-02-09T12:35:25.322Z,4.18
2023-02-09T12:38:14.764Z,4.26
2023-02-09T12:40:41.220Z,4.68
2023-02-09T12:43:27.651Z,4.63
2023-02-09T12:46:20.037Z,4.42
2023-02-09T12:49:19.169Z,4.15
2023-02-09T12:52:03.918Z,4.10
2023-02-09T12:54:39.954Z,4.24
2023-02-09T12:57:42.939Z,4.29
2023-02-09T13:00:40.820Z,4.40
2023-02-09T13:03:12.663Z,4.65
2023-02-09T13:05:44.353Z,4.51
2023-02-09T13:08:43.919Z,4.63
2023-02-09T13:11:21.677Z,4.78
2023-02-09T13:13:53.039Z,4.91
2023-02-09T13:16:57.544Z,4.90
2023-02-09T13:19:56.293Z,4.76
2023-02-09T13:22:32.776Z,4.72
2023-02-09T13:25:00.964Z,4.66
2023-02-09T13:27:28.993Z,4.69
2023-02-09T13:29:57.714Z,4.67
2023-02-09T13:32:37.777Z,5.01
2023-02-09T13:35:15.545Z,5.29
2023-02-09T13:37:46.244Z,5.31
2023-02-09T13:40:16.126Z,5.33
2023-02-09T13:42:53.380Z,5.51
2023-02-09T13:45:20.030Z,5.43
2023-02-09T13:47:47.266Z,5.37
2023-02-09T13:50:16.736Z,5.18
2023-02-09T13:52:43.511Z,5.32
2023-02-09T13:55:12.764Z,5.30
2023-02-09T13:57:42.132Z,5.33
2023-02-09T14:00:26.982Z,5.50
2023-02-09T14:02:57.329Z,5.09
2023-02-09T14:05:39.185Z,5.08
2023-02-09T14:08:06.436Z,5.08
2023-02-09T14:10:34.432Z,5.52
2023-02-09T14:13:04.291Z,5.61
2023-02-09T14:15:54.408Z,5.59
2023-02-09T14:18:27.483Z,5.62
2023-02-09T14:21:22.076Z,6.02
2023-02-09T14:24:02.300Z,6.22
2023-02-09T14:26:32.877Z,5.92
2023-02-09T14:29:11.236Z,5.53
2023-02-09T14:31:42.512Z,5.24
2023-02-09T14:34:28.261Z,5.42
2023-02-09T14:36:56.530Z,5.53
2023-02-09T14:39:23.722Z,5.63
2023-02-09T14:42:14.626Z,5.38
2023-02-09T14:44:46.149Z,5.35
2023-02-09T14:47:28.225Z,5.12
2023-02-09T14:49:56.402Z,5.31
2023-02-09T14:52:28.030Z,5.37
2023-02-09T14:54:57.021Z,5.40
2023-02-09T14:57:25.212Z,5.48
2023-02-09T14:59:51.576Z,5.59
2023-02-09T15:02:20.466Z,6.37
2023-02-09T15:04:47.258Z,6.42
2023-02-09T15:07:18.514Z,5.82
2023-02-09T15:09:45.764Z,5.66
2023-02-09T15:12:21.634Z,5.47
2023-02-09T15:14:49.132Z,5.36
2023-02-09T15:17:17.685Z,5.33
2023-02-09T15:19:44.489Z,5.09
2023-02-09T15:22:14.254Z,5.06
2023-02-09T15:24:42.378Z,5.03
2023-02-09T15:27:32.823Z,4.91
2023-02-09T15:30:02.314Z,4.92
2023-02-09T15:32:30.198Z,4.70
2023-02-09T15:34:56.631Z,4.48
2023-02-09T15:37:25.777Z,4.14
2023-02-09T15:39:55.950Z,4.07
2023-02-09T15:42:40.513Z,3.91
2023-02-09T15:45:36.009Z,3.88
2023-02-09T15:48:03.168Z,3.69
2023-02-09T15:50:30.505Z,3.55
2023-02-09T15:52:57.671Z,3.49
2023-02-09T15:55:26.524Z,3.41
2023-02-09T15:57:53.892Z,3.29
2023-02-09T16:00:26.471Z,3.21
2023-02-09T16:02:53.333Z,3.03
2023-02-09T16:05:20.607Z,2.91
2023-02-09T16:07:48.740Z,2.83
2023-02-09T16:10:21.611Z,2.82
2023-02-09T16:12:48.911Z,2.70
2023-02-09T16:15:16.436Z,2.54
2023-02-09T16:17:43.046Z,2.40
2023-02-09T16:20:10.235Z,2.28
2023-02-09T16:22:38.956Z,2.13
2023-02-09T16:25:06.024Z,2.02
2023-02-09T16:27:32.632Z,1.90
2023-02-09T16:29:59.733Z,1.87
2023-02-09T16:32:28.016Z,1.76
2023-02-09T16:34:57.737Z,1.69
2023-02-09T16:37:30.894Z,1.59
2023-02-09T16:39:57.607Z,1.46
2023-02-09T16:42:24.893Z,1.28
2023-02-09T16:44:52.061Z,1.18
2023-02-09T16:47:21.614Z,1.10
2023-02-09T16:49:55.485Z,1.01
2023-02-09T16:52:25.156Z,0.91
2023-02-09T16:54:54.767Z,0.82
2023-02-09T16:57:22.744Z,0.60
2023-02-09T16:59:49.427Z,0.61
2023-02-09T17:02:29.157Z,0.48
2023-02-09T17:04:55.810Z,0.46
2023-02-09T17:07:24.111Z,0.41
2023-02-09T17:09:50.506Z,0.33
2023-02-09T17:12:16.896Z,0.27
2023-02-09T17:14:43.252Z,0.23
2023-02-09T17:17:17.178Z,0.24
2023-02-09T17:19:47.934Z,0.26
2023-02-09T17:22:15.606Z,0.25
2023-02-09T17:24:42.169Z,0.20
2023-02-09T17:27:09.454Z,0.13
2023-02-09T17:29:35.920Z,0.10
2023-02-09T17:32:02.875Z,0.10
2023-02-09T17:34:29.366Z,0.07
2023-02-09T17:36:57.403Z,0.02
2023-02-09T17:39:29.927Z,0.00
2023-02-09T17:41:59.013Z,-0.08
2023-02-09T17:44:45.161Z,-0.08
2023-02-09T17:47:14.994Z,-0.09
2023-02-09T17:49:41.457Z,-0.14
2023-02-09T17:52:16.966Z,-0.21
2023-02-09T17:54:44.669Z,-0.25
2023-02-09T17:57:12.833Z,-0.18
2023-02-09T17:59:39.238Z,-0.23
2023-02-09T18:02:13.620Z,-0.38
2023-02-09T18:04:40.264Z,-0.32
2023-02-09T18:07:06.719Z,-0.24
2023-02-09T18:09:33.925Z,-0.30
2023-02-09T18:12:02.380Z,-0.40
2023-02-09T18:14:30.819Z,-0.42
2023-02-09T18:16:57.331Z,-0.36
2023-02-09T18:19:27.254Z,-0.70
2023-02-09T18:21:58.404Z,-0.89
2023-02-09T18:24:27.537Z,-0.89
2023-02-09T18:26:55.184Z,-0.87
2023-02-09T18:29:25.386Z,-0.85
2023-02-09T18:31:51.813Z,-0.75
2023-02-09T18:34:21.240Z,-0.74
2023-02-09T18:36:47.709Z,-0.73
2023-02-09T18:39:14.309Z,-0.78
2023-02-09T18:41:45.559Z,-0.82
2023-02-09T18:44:12.698Z,-0.99
2023-02-09T18:46:40.951Z,-0.96
2023-02-09T18:49:11.266Z,-0.94
2023-02-09T18:51:37.673Z,-0.97
2023-02-09T18:54:04.835Z,-0.99
2023-02-09T18:56:31.241Z,-1.04
2023-02-09T18:58:57.642Z,-1.12
2023-02-09T19:01:24.738Z,-1.23
2023-02-09T19:03:52.434Z,-1.33
2023-02-09T19:06:19.962Z,-1.39
2023-02-09T19:08:47.703Z,-1.37
2023-02-09T19:11:15.302Z,-1.32
2023-02-09T19:13:41.734Z,-1.36
2023-02-09T19:16:10.267Z,-1.37
2023-02-09T19:18:38.722Z,-1.33
2023-02-09T19:21:06.560Z,-1.56
2023-02-09T19:23:32.989Z,-1.38
2023-02-09T19:26:04.864Z,-1.49
2023-02-09T19:28:31.512Z,-1.46
2023-02-09T19:30:57.952Z,-1.46
2023-02-09T19:33:24.661Z,-1.54
2023-02-09T19:35:57.990Z,-1.52
2023-02-09T19:38:25.252Z,-1.54
2023-02-09T19:41:02.038Z,-1.57
2023-02-09T19:43:35.170Z,-1.60
2023-02-09T19:46:01.632Z,-1.68
2023-02-09T19:48:28.108Z,-1.70
2023-02-09T19:50:55.694Z,-1.89
2023-02-09T19:53:26.433Z,-1.99
2023-02-09T19:55:53.491Z,-1.99
2023-02-09T19:58:20.977Z,-2.00
2023-02-09T20:00:47.838Z,-1.98
2023-02-09T20:03:14.984Z,-2.02
2023-02-09T20:05:42.662Z,-1.98
2023-02-09T20:08:12.595Z,-1.98
2023-02-09T20:10:40.094Z,-2.06
2023-02-09T20:13:07.767Z,-2.07
2023-02-09T20:15:34.207Z,-2.02
2023-02-09T20:18:00.615Z,-2.05
2023-02-09T20:20:27.125Z,-2.08
2023-02-09T20:22:53.811Z,-1.98
2023-02-09T20:25:20.225Z,1.63
2023-02-09T20:27:48.875Z,1.91
2023-02-09T20:30:15.967Z,2.17
2023-02-09T20:32:42.389Z,2.42
2023-02-09T20:35:11.281Z,2.58
2023-02-09T20:37:37.688Z,3.31
2023-02-09T20:40:04.613Z,2.39
2023-02-09T20:42:49.286Z,0.68
2023-02-09T20:45:34.897Z,-0.51
2023-02-09T20:48:01.718Z,-1.27
2023-02-09T20:50:31.215Z,-1.60
2023-02-09T20:52:58.146Z,-1.86
2023-02-09T20:55:24.656Z,-2.01
2023-02-09T20:57:51.131Z,-2.08
2023-02-09T21:00:18.688Z,-2.19
2023-02-09T21:02:45.115Z,-2.23
2023-02-09T21:05:11.640Z,-2.23
2023-02-09T21:07:38.108Z,-2.24
2023-02-09T21:10:04.864Z,-2.36
2023-02-09T21:12:31.266Z,-2.39
2023-02-09T21:14:58.416Z,-2.47
2023-02-09T21:17:25.550Z,-2.39
2023-02-09T21:19:52.072Z,-2.46
2023-02-09T21:22:18.536Z,-2.50
2023-02-09T21:24:44.957Z,-2.61
2023-02-09T21:27:12.009Z,-2.57
2023-02-09T21:29:38.502Z,-2.61
2023-02-09T21:32:06.401Z,-2.63
2023-02-09T21:34:33.551Z,-2.63
2023-02-09T21:37:00.017Z,-2.61
2023-02-09T21:39:26.470Z,-2.55
2023-02-09T21:42:11.167Z,-2.52
2023-02-09T21:44:38.150Z,-2.60
2023-02-09T21:47:05.667Z,-2.62
2023-02-09T21:49:34.815Z,-2.67
2023-02-09T21:52:01.275Z,-2.69
2023-02-09T21:54:33.279Z,-2.68
2023-02-09T21:56:59.910Z,-2.65
2023-02-09T21:59:27.003Z,-2.62
2023-02-09T22:01:53.486Z,-2.60
2023-02-09T22:04:20.052Z,-2.63
2023-02-09T22:06:47.694Z,-2.57
2023-02-09T22:09:19.595Z,-2.63
2023-02-09T22:11:46.054Z,-2.70
2023-02-09T22:14:12.438Z,-2.66
2023-02-09T22:16:38.985Z,-2.69
2023-02-09T22:19:05.409Z,-2.76
2023-02-09T22:21:31.849Z,-2.76
2023-02-09T22:23:58.886Z,-2.82
2023-02-09T22:26:25.299Z,-2.71
2023-02-09T22:28:51.709Z,-2.79
2023-02-09T22:31:20.198Z,-2.72
2023-02-09T22:33:46.658Z,-2.73
2023-02-09T22:36:14.618Z,-2.85
2023-02-09T22:38:41.655Z,-2.72
2023-02-09T22:41:20.452Z,-2.68
2023-02-09T22:43:48.090Z,-2.71
2023-02-09T22:46:14.589Z,-2.72
2023-02-09T22:48:41.109Z,-2.62
2023-02-09T22:51:07.523Z,-2.65
2023-02-09T22:53:34.273Z,-2.64
2023-02-09T22:56:01.628Z,-2.70
2023-02-09T22:58:28.678Z,-2.74
2023-02-09T23:00:55.092Z,-2.77
2023-02-09T23:03:21.529Z,-2.81
2023-02-09T23:05:48.137Z,-2.81
2023-02-09T23:08:14.710Z,-2.83
2023-02-09T23:10:41.242Z,-2.85
2023-02-09T23:13:07.739Z,-2.82
2023-02-09T23:15:34.792Z,-2.79
2023-02-09T23:18:01.432Z,-2.68
2023-02-09T23:20:27.798Z,-2.59
2023-02-09T23:22:55.617Z,1.81
2023-02-09T23:25:23.581Z,0.54
2023-02-09T23:27:50.151Z,-0.47
2023-02-09T23:30:16.549Z,-0.71
2023-02-09T23:32:43.642Z,-0.94
2023-02-09T23:35:10.052Z,-1.15
2023-02-09T23:37:38.084Z,-1.01
2023-02-09T23:40:05.377Z,-1.11
2023-02-09T23:42:31.850Z,-0.94
2023-02-09T23:44:58.289Z,-0.89
2023-02-09T23:47:24.803Z,-1.04
2023-02-09T23:49:51.897Z,-0.96
2023-02-09T23:52:18.270Z,-0.94
2023-02-09T23:54:44.793Z,-0.72
2023-02-09T23:57:11.195Z,-0.85
2023-02-09T23:59:38.391Z,-1.10
